sensor_id;sensor_type;location;lat;lon;timestamp;temperature;humidity
48162;DHT22;33950;48.154;16.316;2022-08-25T00:01:54;24.10;99.90
48162;DHT22;33950;48.154;16.316;2022-08-25T00:04:22;24.10;99.90
48162;DHT22;33950;48.154;16.316;2022-08-25T00:06:49;24.10;99.90
48162;DHT22;33950;48.154;16.316;2022-08-25T00:09:17;24.10;99.90
48162;DHT22;33950;48.154;16.316;2022-08-25T00:11:44;24.10;99.90
48162;DHT22;33950;48.154;16.316;2022-08-25T00:14:13;24.10;99.90
48162;DHT22;33950;48.154;16.316;2022-08-25T00:16:40;24.10;99.90
48162;DHT22;33950;48.154;16.316;2022-08-25T00:19:09;24.10;99.90
48162;DHT22;33950;48.154;16.316;2022-08-25T00:21:37;24.10;99.90
48162;DHT22;33950;48.154;16.316;2022-08-25T00:24:06;24.00;99.90
48162;DHT22;33950;48.154;16.316;2022-08-25T00:26:33;24.00;99.90
48162;DHT22;33950;48.154;16.316;2022-08-25T00:28:59;24.00;99.90
48162;DHT22;33950;48.154;16.316;2022-08-25T00:31:25;24.00;99.90
48162;DHT22;33950;48.154;16.316;2022-08-25T00:33:51;24.00;99.90
48162;DHT22;33950;48.154;16.316;2022-08-25T00:36:18;24.10;99.90
48162;DHT22;33950;48.154;16.316;2022-08-25T00:38:46;24.00;99.90
48162;DHT22;33950;48.154;16.316;2022-08-25T00:41:15;24.00;99.90
48162;DHT22;33950;48.154;16.316;2022-08-25T00:43:47;24.00;99.90
48162;DHT22;33950;48.154;16.316;2022-08-25T00:46:17;24.10;99.90
48162;DHT22;33950;48.154;16.316;2022-08-25T00:48:45;24.10;99.90
48162;DHT22;33950;48.154;16.316;2022-08-25T00:51:15;24.00;99.90
48162;DHT22;33950;48.154;16.316;2022-08-25T00:53:41;24.10;99.90
48162;DHT22;33950;48.154;16.316;2022-08-25T00:56:10;24.10;99.90
48162;DHT22;33950;48.154;16.316;2022-08-25T00:58:36;24.10;99.90
48162;DHT22;33950;48.154;16.316;2022-08-25T01:01:03;24.10;99.90
48162;DHT22;33950;48.154;16.316;2022-08-25T01:03:30;24.00;99.90
48162;DHT22;33950;48.154;16.316;2022-08-25T01:05:59;24.00;99.90
48162;DHT22;33950;48.154;16.316;2022-08-25T01:08:27;24.00;99.90
48162;DHT22;33950;48.154;16.316;2022-08-25T01:10:54;24.00;99.90
48162;DHT22;33950;48.154;16.316;2022-08-25T01:13:26;23.90;99.90
48162;DHT22;33950;48.154;16.316;2022-08-25T01:15:55;23.80;99.90
48162;DHT22;33950;48.154;16.316;2022-08-25T01:18:24;23.70;99.90
48162;DHT22;33950;48.154;16.316;2022-08-25T01:20:53;23.60;99.90
48162;DHT22;33950;48.154;16.316;2022-08-25T01:23:19;23.70;99.90
48162;DHT22;33950;48.154;16.316;2022-08-25T01:25:50;23.70;99.90
48162;DHT22;33950;48.154;16.316;2022-08-25T01:28:18;23.70;99.90
48162;DHT22;33950;48.154;16.316;2022-08-25T01:30:44;23.70;99.90
48162;DHT22;33950;48.154;16.316;2022-08-25T01:33:11;23.70;99.90
48162;DHT22;33950;48.154;16.316;2022-08-25T01:35:38;23.70;99.90
48162;DHT22;33950;48.154;16.316;2022-08-25T01:38:06;23.70;99.90
48162;DHT22;33950;48.154;16.316;2022-08-25T01:40:34;23.80;99.90
48162;DHT22;33950;48.154;16.316;2022-08-25T01:43:06;23.70;99.90
48162;DHT22;33950;48.154;16.316;2022-08-25T01:45:40;23.80;99.90
48162;DHT22;33950;48.154;16.316;2022-08-25T01:48:07;23.70;99.90
48162;DHT22;33950;48.154;16.316;2022-08-25T01:50:34;23.70;99.90
48162;DHT22;33950;48.154;16.316;2022-08-25T01:53:03;23.70;99.90
48162;DHT22;33950;48.154;16.316;2022-08-25T01:55:33;23.70;99.90
48162;DHT22;33950;48.154;16.316;2022-08-25T01:58:16;23.70;99.90
48162;DHT22;33950;48.154;16.316;2022-08-25T02:00:44;23.70;99.90
48162;DHT22;33950;48.154;16.316;2022-08-25T02:03:10;23.70;99.90
48162;DHT22;33950;48.154;16.316;2022-08-25T02:05:35;23.70;99.90
48162;DHT22;33950;48.154;16.316;2022-08-25T02:08:01;23.70;99.90
48162;DHT22;33950;48.154;16.316;2022-08-25T02:10:27;23.70;99.90
48162;DHT22;33950;48.154;16.316;2022-08-25T02:12:54;23.70;99.90
48162;DHT22;33950;48.154;16.316;2022-08-25T02:15:20;23.70;99.90
48162;DHT22;33950;48.154;16.316;2022-08-25T02:17:46;23.70;99.90
48162;DHT22;33950;48.154;16.316;2022-08-25T02:20:12;23.70;99.90
48162;DHT22;33950;48.154;16.316;2022-08-25T02:22:38;23.70;99.90
48162;DHT22;33950;48.154;16.316;2022-08-25T02:25:05;23.70;99.90
48162;DHT22;33950;48.154;16.316;2022-08-25T02:27:31;23.70;99.90
48162;DHT22;33950;48.154;16.316;2022-08-25T02:29:58;23.70;99.90
48162;DHT22;33950;48.154;16.316;2022-08-25T02:32:24;23.60;99.90
48162;DHT22;33950;48.154;16.316;2022-08-25T02:34:49;23.60;99.90
48162;DHT22;33950;48.154;16.316;2022-08-25T02:37:15;23.60;99.90
48162;DHT22;33950;48.154;16.316;2022-08-25T02:39:41;23.60;99.90
48162;DHT22;33950;48.154;16.316;2022-08-25T02:42:07;23.60;99.90
48162;DHT22;33950;48.154;16.316;2022-08-25T02:44:33;23.60;99.90
48162;DHT22;33950;48.154;16.316;2022-08-25T02:47:00;23.70;99.90
48162;DHT22;33950;48.154;16.316;2022-08-25T02:49:26;23.60;99.90
48162;DHT22;33950;48.154;16.316;2022-08-25T02:51:52;23.60;99.90
48162;DHT22;33950;48.154;16.316;2022-08-25T02:54:19;23.60;99.90
48162;DHT22;33950;48.154;16.316;2022-08-25T02:56:45;23.60;99.90
48162;DHT22;33950;48.154;16.316;2022-08-25T02:59:11;23.60;99.90
48162;DHT22;33950;48.154;16.316;2022-08-25T03:01:36;23.60;99.90
48162;DHT22;33950;48.154;16.316;2022-08-25T03:04:04;23.70;99.90
48162;DHT22;33950;48.154;16.316;2022-08-25T03:06:30;23.70;99.90
48162;DHT22;33950;48.154;16.316;2022-08-25T03:08:55;23.70;99.90
48162;DHT22;33950;48.154;16.316;2022-08-25T03:11:21;23.60;99.90
48162;DHT22;33950;48.154;16.316;2022-08-25T03:13:48;23.60;99.90
48162;DHT22;33950;48.154;16.316;2022-08-25T03:16:18;23.60;99.90
48162;DHT22;33950;48.154;16.316;2022-08-25T03:18:44;23.60;99.90
48162;DHT22;33950;48.154;16.316;2022-08-25T03:21:12;23.60;99.90
48162;DHT22;33950;48.154;16.316;2022-08-25T03:23:39;23.60;99.90
48162;DHT22;33950;48.154;16.316;2022-08-25T03:26:06;23.60;99.90
48162;DHT22;33950;48.154;16.316;2022-08-25T03:28:50;23.70;99.90
48162;DHT22;33950;48.154;16.316;2022-08-25T03:31:16;23.70;99.90
48162;DHT22;33950;48.154;16.316;2022-08-25T03:33:42;23.70;99.90
48162;DHT22;33950;48.154;16.316;2022-08-25T03:36:09;23.70;99.90
48162;DHT22;33950;48.154;16.316;2022-08-25T03:38:40;23.70;99.90
48162;DHT22;33950;48.154;16.316;2022-08-25T03:41:14;23.60;99.90
48162;DHT22;33950;48.154;16.316;2022-08-25T03:43:41;23.60;99.90
48162;DHT22;33950;48.154;16.316;2022-08-25T03:46:07;23.60;99.90
48162;DHT22;33950;48.154;16.316;2022-08-25T03:48:33;23.60;99.90
48162;DHT22;33950;48.154;16.316;2022-08-25T03:50:59;23.50;99.90
48162;DHT22;33950;48.154;16.316;2022-08-25T03:53:24;23.50;99.90
48162;DHT22;33950;48.154;16.316;2022-08-25T03:55:51;23.40;99.90
48162;DHT22;33950;48.154;16.316;2022-08-25T03:58:17;23.40;99.90
48162;DHT22;33950;48.154;16.316;2022-08-25T04:00:43;23.40;99.90
48162;DHT22;33950;48.154;16.316;2022-08-25T04:03:09;23.40;99.90
48162;DHT22;33950;48.154;16.316;2022-08-25T04:05:35;23.40;99.90
48162;DHT22;33950;48.154;16.316;2022-08-25T04:08:01;23.40;99.90
48162;DHT22;33950;48.154;16.316;2022-08-25T04:10:27;23.50;99.90
48162;DHT22;33950;48.154;16.316;2022-08-25T04:12:54;23.50;99.90
48162;DHT22;33950;48.154;16.316;2022-08-25T04:15:20;23.50;99.90
48162;DHT22;33950;48.154;16.316;2022-08-25T04:17:46;23.50;99.90
48162;DHT22;33950;48.154;16.316;2022-08-25T04:20:12;23.50;99.90
48162;DHT22;33950;48.154;16.316;2022-08-25T04:22:38;23.50;99.90
48162;DHT22;33950;48.154;16.316;2022-08-25T04:25:05;23.50;99.90
48162;DHT22;33950;48.154;16.316;2022-08-25T04:27:31;23.60;99.90
48162;DHT22;33950;48.154;16.316;2022-08-25T04:29:59;23.50;99.90
48162;DHT22;33950;48.154;16.316;2022-08-25T04:32:24;23.50;99.90
48162;DHT22;33950;48.154;16.316;2022-08-25T04:34:50;23.50;99.90
48162;DHT22;33950;48.154;16.316;2022-08-25T04:37:16;23.50;99.90
48162;DHT22;33950;48.154;16.316;2022-08-25T04:39:42;23.50;99.90
48162;DHT22;33950;48.154;16.316;2022-08-25T04:42:08;23.50;99.90
48162;DHT22;33950;48.154;16.316;2022-08-25T04:44:34;23.50;99.90
48162;DHT22;33950;48.154;16.316;2022-08-25T04:47:01;23.50;99.90
48162;DHT22;33950;48.154;16.316;2022-08-25T04:49:27;23.50;99.90
48162;DHT22;33950;48.154;16.316;2022-08-25T04:51:53;23.50;99.90
48162;DHT22;33950;48.154;16.316;2022-08-25T04:54:20;23.60;99.90
48162;DHT22;33950;48.154;16.316;2022-08-25T04:56:47;23.60;99.90
48162;DHT22;33950;48.154;16.316;2022-08-25T04:59:15;23.60;99.90
48162;DHT22;33950;48.154;16.316;2022-08-25T05:01:42;23.60;99.90
48162;DHT22;33950;48.154;16.316;2022-08-25T05:04:14;23.50;99.90
48162;DHT22;33950;48.154;16.316;2022-08-25T05:06:41;23.50;99.90
48162;DHT22;33950;48.154;16.316;2022-08-25T05:09:08;23.50;99.90
48162;DHT22;33950;48.154;16.316;2022-08-25T05:11:34;23.60;99.90
48162;DHT22;33950;48.154;16.316;2022-08-25T05:14:00;23.50;99.90
48162;DHT22;33950;48.154;16.316;2022-08-25T05:16:27;23.50;99.90
48162;DHT22;33950;48.154;16.316;2022-08-25T05:18:53;23.50;99.90
48162;DHT22;33950;48.154;16.316;2022-08-25T05:21:23;23.50;99.90
48162;DHT22;33950;48.154;16.316;2022-08-25T05:23:49;23.50;99.90
48162;DHT22;33950;48.154;16.316;2022-08-25T05:26:16;23.50;99.90
48162;DHT22;33950;48.154;16.316;2022-08-25T05:28:42;23.50;99.90
48162;DHT22;33950;48.154;16.316;2022-08-25T05:31:10;23.60;99.90
48162;DHT22;33950;48.154;16.316;2022-08-25T05:33:37;23.70;99.90
48162;DHT22;33950;48.154;16.316;2022-08-25T05:36:04;23.70;99.90
48162;DHT22;33950;48.154;16.316;2022-08-25T05:38:33;23.80;99.90
48162;DHT22;33950;48.154;16.316;2022-08-25T05:41:01;23.80;99.90
48162;DHT22;33950;48.154;16.316;2022-08-25T05:43:28;23.80;99.90
48162;DHT22;33950;48.154;16.316;2022-08-25T05:45:55;23.70;99.90
48162;DHT22;33950;48.154;16.316;2022-08-25T05:48:21;23.70;99.90
48162;DHT22;33950;48.154;16.316;2022-08-25T05:50:50;23.70;99.90
48162;DHT22;33950;48.154;16.316;2022-08-25T05:53:16;23.60;99.90
48162;DHT22;33950;48.154;16.316;2022-08-25T05:55:45;23.60;99.90
48162;DHT22;33950;48.154;16.316;2022-08-25T05:58:11;23.60;99.90
48162;DHT22;33950;48.154;16.316;2022-08-25T06:00:37;23.50;99.90
48162;DHT22;33950;48.154;16.316;2022-08-25T06:03:03;23.50;99.90
48162;DHT22;33950;48.154;16.316;2022-08-25T06:05:29;23.50;99.90
48162;DHT22;33950;48.154;16.316;2022-08-25T06:07:55;23.50;99.90
48162;DHT22;33950;48.154;16.316;2022-08-25T06:10:21;23.50;99.90
48162;DHT22;33950;48.154;16.316;2022-08-25T06:12:48;23.50;99.90
48162;DHT22;33950;48.154;16.316;2022-08-25T06:15:17;23.60;99.90
48162;DHT22;33950;48.154;16.316;2022-08-25T06:17:43;23.60;99.90
48162;DHT22;33950;48.154;16.316;2022-08-25T06:20:11;23.70;99.90
48162;DHT22;33950;48.154;16.316;2022-08-25T06:22:37;23.70;99.90
48162;DHT22;33950;48.154;16.316;2022-08-25T06:25:03;23.70;99.90
48162;DHT22;33950;48.154;16.316;2022-08-25T06:27:29;23.70;99.90
48162;DHT22;33950;48.154;16.316;2022-08-25T06:29:57;23.70;99.90
48162;DHT22;33950;48.154;16.316;2022-08-25T06:32:22;23.70;99.90
48162;DHT22;33950;48.154;16.316;2022-08-25T06:34:48;23.80;99.90
48162;DHT22;33950;48.154;16.316;2022-08-25T06:37:15;23.80;99.90
48162;DHT22;33950;48.154;16.316;2022-08-25T06:39:41;23.80;99.90
48162;DHT22;33950;48.154;16.316;2022-08-25T06:42:07;23.80;99.90
48162;DHT22;33950;48.154;16.316;2022-08-25T06:44:34;23.80;99.90
48162;DHT22;33950;48.154;16.316;2022-08-25T06:47:01;23.80;99.90
48162;DHT22;33950;48.154;16.316;2022-08-25T06:49:27;23.80;99.90
48162;DHT22;33950;48.154;16.316;2022-08-25T06:51:53;23.80;99.90
48162;DHT22;33950;48.154;16.316;2022-08-25T06:54:19;23.70;99.90
48162;DHT22;33950;48.154;16.316;2022-08-25T06:56:44;23.80;99.90
48162;DHT22;33950;48.154;16.316;2022-08-25T06:59:11;23.80;99.90
48162;DHT22;33950;48.154;16.316;2022-08-25T07:01:37;23.80;99.90
48162;DHT22;33950;48.154;16.316;2022-08-25T07:04:05;23.80;99.90
48162;DHT22;33950;48.154;16.316;2022-08-25T07:06:33;23.80;99.90
48162;DHT22;33950;48.154;16.316;2022-08-25T07:09:04;24.00;99.90
48162;DHT22;33950;48.154;16.316;2022-08-25T07:11:31;24.00;99.90
48162;DHT22;33950;48.154;16.316;2022-08-25T07:13:59;24.00;99.90
48162;DHT22;33950;48.154;16.316;2022-08-25T07:16:25;24.00;99.90
48162;DHT22;33950;48.154;16.316;2022-08-25T07:18:51;24.00;99.90
48162;DHT22;33950;48.154;16.316;2022-08-25T07:21:22;24.00;99.90
48162;DHT22;33950;48.154;16.316;2022-08-25T07:23:48;24.00;99.90
48162;DHT22;33950;48.154;16.316;2022-08-25T07:26:16;24.00;99.90
48162;DHT22;33950;48.154;16.316;2022-08-25T07:28:42;24.00;99.90
48162;DHT22;33950;48.154;16.316;2022-08-25T07:31:08;24.00;99.90
48162;DHT22;33950;48.154;16.316;2022-08-25T07:33:34;24.00;99.90
48162;DHT22;33950;48.154;16.316;2022-08-25T07:36:01;24.00;99.90
48162;DHT22;33950;48.154;16.316;2022-08-25T07:38:28;24.10;99.90
48162;DHT22;33950;48.154;16.316;2022-08-25T07:41:00;24.10;99.90
48162;DHT22;33950;48.154;16.316;2022-08-25T07:43:27;24.10;99.90
48162;DHT22;33950;48.154;16.316;2022-08-25T07:45:53;24.20;99.90
48162;DHT22;33950;48.154;16.316;2022-08-25T07:48:19;24.30;99.90
48162;DHT22;33950;48.154;16.316;2022-08-25T07:50:45;24.40;99.90
48162;DHT22;33950;48.154;16.316;2022-08-25T07:53:13;24.30;99.90
48162;DHT22;33950;48.154;16.316;2022-08-25T07:55:40;24.20;99.90
48162;DHT22;33950;48.154;16.316;2022-08-25T07:58:08;24.20;99.90
48162;DHT22;33950;48.154;16.316;2022-08-25T08:00:35;24.10;99.90
48162;DHT22;33950;48.154;16.316;2022-08-25T08:03:03;24.20;99.90
48162;DHT22;33950;48.154;16.316;2022-08-25T08:05:29;24.30;99.90
48162;DHT22;33950;48.154;16.316;2022-08-25T08:07:55;24.40;99.90
48162;DHT22;33950;48.154;16.316;2022-08-25T08:10:21;24.50;99.90
48162;DHT22;33950;48.154;16.316;2022-08-25T08:12:49;24.50;99.90
48162;DHT22;33950;48.154;16.316;2022-08-25T08:15:14;24.50;99.90
48162;DHT22;33950;48.154;16.316;2022-08-25T08:17:40;24.50;99.90
48162;DHT22;33950;48.154;16.316;2022-08-25T08:20:08;24.40;99.90
48162;DHT22;33950;48.154;16.316;2022-08-25T08:22:34;24.20;99.90
48162;DHT22;33950;48.154;16.316;2022-08-25T08:25:00;24.00;99.90
48162;DHT22;33950;48.154;16.316;2022-08-25T08:27:26;24.00;99.90
48162;DHT22;33950;48.154;16.316;2022-08-25T08:29:53;24.00;99.90
48162;DHT22;33950;48.154;16.316;2022-08-25T08:32:19;24.10;99.90
48162;DHT22;33950;48.154;16.316;2022-08-25T08:34:45;24.20;99.90
48162;DHT22;33950;48.154;16.316;2022-08-25T08:37:12;24.30;99.90
48162;DHT22;33950;48.154;16.316;2022-08-25T08:39:38;24.50;99.90
48162;DHT22;33950;48.154;16.316;2022-08-25T08:42:22;24.60;99.90
48162;DHT22;33950;48.154;16.316;2022-08-25T08:45:31;24.70;99.90
48162;DHT22;33950;48.154;16.316;2022-08-25T08:48:23;24.80;99.90
48162;DHT22;33950;48.154;16.316;2022-08-25T08:50:59;24.80;99.90
48162;DHT22;33950;48.154;16.316;2022-08-25T08:53:30;24.70;99.90
48162;DHT22;33950;48.154;16.316;2022-08-25T08:55:59;24.70;99.90
48162;DHT22;33950;48.154;16.316;2022-08-25T08:58:29;24.80;99.90
48162;DHT22;33950;48.154;16.316;2022-08-25T09:01:01;25.00;99.90
48162;DHT22;33950;48.154;16.316;2022-08-25T09:03:32;25.20;99.90
48162;DHT22;33950;48.154;16.316;2022-08-25T09:06:00;25.40;99.90
48162;DHT22;33950;48.154;16.316;2022-08-25T09:08:27;25.40;99.90
48162;DHT22;33950;48.154;16.316;2022-08-25T09:10:59;25.50;99.90
48162;DHT22;33950;48.154;16.316;2022-08-25T09:13:34;25.70;99.90
48162;DHT22;33950;48.154;16.316;2022-08-25T09:16:08;25.70;99.90
48162;DHT22;33950;48.154;16.316;2022-08-25T09:19:04;25.70;99.90
48162;DHT22;33950;48.154;16.316;2022-08-25T09:21:38;25.80;99.90
48162;DHT22;33950;48.154;16.316;2022-08-25T09:24:20;25.60;99.90
48162;DHT22;33950;48.154;16.316;2022-08-25T09:26:56;25.50;99.90
48162;DHT22;33950;48.154;16.316;2022-08-25T09:29:27;25.60;99.90
48162;DHT22;33950;48.154;16.316;2022-08-25T09:31:57;25.70;99.90
48162;DHT22;33950;48.154;16.316;2022-08-25T09:34:29;25.70;99.90
48162;DHT22;33950;48.154;16.316;2022-08-25T09:36:56;25.60;99.90
48162;DHT22;33950;48.154;16.316;2022-08-25T09:39:23;25.70;99.90
48162;DHT22;33950;48.154;16.316;2022-08-25T09:41:52;25.70;99.90
48162;DHT22;33950;48.154;16.316;2022-08-25T09:44:21;25.80;99.90
48162;DHT22;33950;48.154;16.316;2022-08-25T09:47:00;25.70;99.90
48162;DHT22;33950;48.154;16.316;2022-08-25T09:49:41;25.80;99.90
48162;DHT22;33950;48.154;16.316;2022-08-25T09:52:24;25.90;99.90
48162;DHT22;33950;48.154;16.316;2022-08-25T09:54:52;26.00;99.90
48162;DHT22;33950;48.154;16.316;2022-08-25T09:57:33;26.10;99.90
48162;DHT22;33950;48.154;16.316;2022-08-25T10:00:11;26.20;99.90
48162;DHT22;33950;48.154;16.316;2022-08-25T10:02:39;26.30;99.90
48162;DHT22;33950;48.154;16.316;2022-08-25T10:05:21;26.40;99.90
48162;DHT22;33950;48.154;16.316;2022-08-25T10:07:53;26.40;99.90
48162;DHT22;33950;48.154;16.316;2022-08-25T10:10:27;26.40;99.90
48162;DHT22;33950;48.154;16.316;2022-08-25T10:12:53;26.60;99.90
48162;DHT22;33950;48.154;16.316;2022-08-25T10:15:27;26.70;99.90
48162;DHT22;33950;48.154;16.316;2022-08-25T10:17:54;26.70;99.60
48162;DHT22;33950;48.154;16.316;2022-08-25T10:20:22;26.70;99.90
48162;DHT22;33950;48.154;16.316;2022-08-25T10:22:50;26.80;99.80
48162;DHT22;33950;48.154;16.316;2022-08-25T10:25:19;26.80;99.70
48162;DHT22;33950;48.154;16.316;2022-08-25T10:28:05;26.80;99.30
48162;DHT22;33950;48.154;16.316;2022-08-25T10:30:47;26.90;99.50
48162;DHT22;33950;48.154;16.316;2022-08-25T10:33:25;27.00;99.20
48162;DHT22;33950;48.154;16.316;2022-08-25T10:35:58;27.10;99.10
48162;DHT22;33950;48.154;16.316;2022-08-25T10:38:37;27.00;98.70
48162;DHT22;33950;48.154;16.316;2022-08-25T10:41:26;27.10;99.10
48162;DHT22;33950;48.154;16.316;2022-08-25T10:44:01;27.40;99.80
48162;DHT22;33950;48.154;16.316;2022-08-25T10:46:38;27.60;99.60
48162;DHT22;33950;48.154;16.316;2022-08-25T10:49:10;27.90;99.50
48162;DHT22;33950;48.154;16.316;2022-08-25T10:51:46;28.20;98.70
48162;DHT22;33950;48.154;16.316;2022-08-25T10:54:25;28.40;97.20
48162;DHT22;33950;48.154;16.316;2022-08-25T10:56:59;28.50;98.00
48162;DHT22;33950;48.154;16.316;2022-08-25T10:59:44;28.70;97.00
48162;DHT22;33950;48.154;16.316;2022-08-25T11:05:25;29.20;96.50
48162;DHT22;33950;48.154;16.316;2022-08-25T11:07:56;29.00;96.90
48162;DHT22;33950;48.154;16.316;2022-08-25T11:10:26;28.90;96.70
48162;DHT22;33950;48.154;16.316;2022-08-25T11:12:58;28.70;97.00
48162;DHT22;33950;48.154;16.316;2022-08-25T11:15:28;28.60;96.60
48162;DHT22;33950;48.154;16.316;2022-08-25T11:17:58;28.50;96.60
48162;DHT22;33950;48.154;16.316;2022-08-25T11:20:32;28.40;95.80
48162;DHT22;33950;48.154;16.316;2022-08-25T11:23:07;28.20;95.80
48162;DHT22;33950;48.154;16.316;2022-08-25T11:25:39;28.00;96.80
48162;DHT22;33950;48.154;16.316;2022-08-25T11:28:10;28.30;96.40
48162;DHT22;33950;48.154;16.316;2022-08-25T11:30:37;28.90;96.40
48162;DHT22;33950;48.154;16.316;2022-08-25T11:33:04;29.30;95.90
48162;DHT22;33950;48.154;16.316;2022-08-25T11:35:36;29.80;95.90
48162;DHT22;33950;48.154;16.316;2022-08-25T11:38:15;30.30;95.60
48162;DHT22;33950;48.154;16.316;2022-08-25T11:40:52;30.70;94.40
48162;DHT22;33950;48.154;16.316;2022-08-25T11:43:32;30.70;92.60
48162;DHT22;33950;48.154;16.316;2022-08-25T11:46:22;30.80;91.90
48162;DHT22;33950;48.154;16.316;2022-08-25T11:48:58;30.90;92.80
48162;DHT22;33950;48.154;16.316;2022-08-25T11:51:32;30.80;92.30
48162;DHT22;33950;48.154;16.316;2022-08-25T11:54:14;30.90;92.20
48162;DHT22;33950;48.154;16.316;2022-08-25T11:56:41;30.90;92.40
48162;DHT22;33950;48.154;16.316;2022-08-25T11:59:07;30.60;92.30
48162;DHT22;33950;48.154;16.316;2022-08-25T12:04:33;30.40;92.40
48162;DHT22;33950;48.154;16.316;2022-08-25T12:07:23;30.30;92.70
48162;DHT22;33950;48.154;16.316;2022-08-25T12:10:12;30.20;92.20
48162;DHT22;33950;48.154;16.316;2022-08-25T12:12:55;30.00;91.80
48162;DHT22;33950;48.154;16.316;2022-08-25T12:15:23;30.10;92.60
48162;DHT22;33950;48.154;16.316;2022-08-25T12:18:08;30.00;93.30
48162;DHT22;33950;48.154;16.316;2022-08-25T12:21:10;30.30;91.70
48162;DHT22;33950;48.154;16.316;2022-08-25T12:23:40;30.40;91.40
48162;DHT22;33950;48.154;16.316;2022-08-25T12:26:16;30.20;91.30
48162;DHT22;33950;48.154;16.316;2022-08-25T12:28:56;29.90;91.20
48162;DHT22;33950;48.154;16.316;2022-08-25T12:31:50;29.70;91.60
48162;DHT22;33950;48.154;16.316;2022-08-25T12:34:30;29.50;92.20
48162;DHT22;33950;48.154;16.316;2022-08-25T12:37:04;29.40;93.90
48162;DHT22;33950;48.154;16.316;2022-08-25T12:39:42;29.30;93.40
48162;DHT22;33950;48.154;16.316;2022-08-25T12:42:21;29.70;92.40
48162;DHT22;33950;48.154;16.316;2022-08-25T12:45:08;29.90;92.30
48162;DHT22;33950;48.154;16.316;2022-08-25T12:47:34;29.70;91.50
48162;DHT22;33950;48.154;16.316;2022-08-25T12:50:34;29.60;92.20
48162;DHT22;33950;48.154;16.316;2022-08-25T12:53:09;29.50;92.90
48162;DHT22;33950;48.154;16.316;2022-08-25T12:55:41;29.50;93.20
48162;DHT22;33950;48.154;16.316;2022-08-25T12:58:08;29.80;92.20
48162;DHT22;33950;48.154;16.316;2022-08-25T13:12:34;30.50;92.10
48162;DHT22;33950;48.154;16.316;2022-08-25T13:15:03;30.90;91.80
48162;DHT22;33950;48.154;16.316;2022-08-25T13:17:31;31.20;90.90
48162;DHT22;33950;48.154;16.316;2022-08-25T13:20:13;31.30;90.20
48162;DHT22;33950;48.154;16.316;2022-08-25T13:22:39;31.30;89.10
48162;DHT22;33950;48.154;16.316;2022-08-25T13:25:06;31.30;90.40
48162;DHT22;33950;48.154;16.316;2022-08-25T13:27:34;31.60;88.90
48162;DHT22;33950;48.154;16.316;2022-08-25T13:30:01;31.80;89.50
48162;DHT22;33950;48.154;16.316;2022-08-25T13:32:30;32.30;90.30
48162;DHT22;33950;48.154;16.316;2022-08-25T13:35:07;32.60;87.60
48162;DHT22;33950;48.154;16.316;2022-08-25T13:37:35;32.80;84.30
48162;DHT22;33950;48.154;16.316;2022-08-25T13:40:09;32.90;84.00
48162;DHT22;33950;48.154;16.316;2022-08-25T13:42:37;33.10;85.20
48162;DHT22;33950;48.154;16.316;2022-08-25T13:45:04;33.30;84.90
48162;DHT22;33950;48.154;16.316;2022-08-25T13:47:32;33.30;83.90
48162;DHT22;33950;48.154;16.316;2022-08-25T13:52:56;33.20;83.70
48162;DHT22;33950;48.154;16.316;2022-08-25T13:55:24;33.20;86.10
48162;DHT22;33950;48.154;16.316;2022-08-25T13:57:52;33.30;83.60
48162;DHT22;33950;48.154;16.316;2022-08-25T14:00:27;33.40;82.10
48162;DHT22;33950;48.154;16.316;2022-08-25T14:02:53;33.20;81.30
48162;DHT22;33950;48.154;16.316;2022-08-25T14:05:34;33.10;81.90
48162;DHT22;33950;48.154;16.316;2022-08-25T14:08:00;33.20;81.60
48162;DHT22;33950;48.154;16.316;2022-08-25T14:10:34;33.40;82.90
48162;DHT22;33950;48.154;16.316;2022-08-25T14:13:11;33.60;84.00
48162;DHT22;33950;48.154;16.316;2022-08-25T14:15:37;33.80;84.20
48162;DHT22;33950;48.154;16.316;2022-08-25T14:18:07;33.70;82.70
48162;DHT22;33950;48.154;16.316;2022-08-25T14:20:34;33.70;83.10
48162;DHT22;33950;48.154;16.316;2022-08-25T14:23:04;33.80;84.80
48162;DHT22;33950;48.154;16.316;2022-08-25T14:25:31;34.00;84.70
48162;DHT22;33950;48.154;16.316;2022-08-25T14:27:58;34.00;85.10
48162;DHT22;33950;48.154;16.316;2022-08-25T14:30:25;34.00;85.70
48162;DHT22;33950;48.154;16.316;2022-08-25T14:32:51;33.80;85.50
48162;DHT22;33950;48.154;16.316;2022-08-25T14:35:17;33.70;83.50
48162;DHT22;33950;48.154;16.316;2022-08-25T14:37:43;33.70;83.20
48162;DHT22;33950;48.154;16.316;2022-08-25T14:40:10;33.70;84.60
48162;DHT22;33950;48.154;16.316;2022-08-25T14:42:38;33.40;86.20
48162;DHT22;33950;48.154;16.316;2022-08-25T14:45:05;33.10;85.50
48162;DHT22;33950;48.154;16.316;2022-08-25T14:47:33;33.00;85.50
48162;DHT22;33950;48.154;16.316;2022-08-25T14:50:00;33.00;84.00
48162;DHT22;33950;48.154;16.316;2022-08-25T14:52:27;33.00;84.20
48162;DHT22;33950;48.154;16.316;2022-08-25T14:54:54;33.10;84.60
48162;DHT22;33950;48.154;16.316;2022-08-25T14:57:21;33.20;84.60
48162;DHT22;33950;48.154;16.316;2022-08-25T14:59:47;33.40;83.30
48162;DHT22;33950;48.154;16.316;2022-08-25T15:02:15;33.50;85.10
48162;DHT22;33950;48.154;16.316;2022-08-25T15:04:50;33.40;83.30
48162;DHT22;33950;48.154;16.316;2022-08-25T15:07:16;33.40;82.40
48162;DHT22;33950;48.154;16.316;2022-08-25T15:10:00;33.30;83.60
48162;DHT22;33950;48.154;16.316;2022-08-25T15:12:26;33.00;82.30
48162;DHT22;33950;48.154;16.316;2022-08-25T15:14:52;32.70;83.80
48162;DHT22;33950;48.154;16.316;2022-08-25T15:17:17;32.50;83.60
48162;DHT22;33950;48.154;16.316;2022-08-25T15:19:43;32.40;85.40
48162;DHT22;33950;48.154;16.316;2022-08-25T15:22:10;32.10;84.00
48162;DHT22;33950;48.154;16.316;2022-08-25T15:24:36;31.90;86.20
48162;DHT22;33950;48.154;16.316;2022-08-25T15:27:03;31.80;84.70
48162;DHT22;33950;48.154;16.316;2022-08-25T15:29:31;31.80;86.30
48162;DHT22;33950;48.154;16.316;2022-08-25T15:32:00;31.80;85.30
48162;DHT22;33950;48.154;16.316;2022-08-25T15:34:26;31.80;84.30
48162;DHT22;33950;48.154;16.316;2022-08-25T15:36:52;31.90;84.00
48162;DHT22;33950;48.154;16.316;2022-08-25T15:39:19;31.80;83.70
48162;DHT22;33950;48.154;16.316;2022-08-25T15:41:45;31.80;85.10
48162;DHT22;33950;48.154;16.316;2022-08-25T15:44:13;31.90;83.80
48162;DHT22;33950;48.154;16.316;2022-08-25T15:46:39;31.90;86.20
48162;DHT22;33950;48.154;16.316;2022-08-25T15:49:06;31.90;86.70
48162;DHT22;33950;48.154;16.316;2022-08-25T15:51:32;31.80;85.20